createdAt,value
2023-04-17T00:01:02.470Z,6.27
2023-04-17T00:03:29.047Z,6.28
2023-04-17T00:05:55.788Z,6.27
2023-04-17T00:08:22.534Z,6.28
2023-04-17T00:10:57.088Z,6.28
2023-04-17T00:13:32.403Z,6.29
2023-04-17T00:15:58.925Z,6.26
2023-04-17T00:18:25.662Z,6.27
2023-04-17T00:20:52.246Z,6.26
2023-04-17T00:23:18.876Z,6.24
2023-04-17T00:25:45.413Z,6.24
2023-04-17T00:28:11.922Z,6.24
2023-04-17T00:30:39.909Z,6.24
2023-04-17T00:33:06.719Z,6.24
2023-04-17T00:35:33.268Z,6.23
2023-04-17T00:37:59.841Z,6.22
2023-04-17T00:40:26.374Z,6.21
2023-04-17T00:42:52.982Z,6.22
2023-04-17T00:45:20.230Z,6.19
2023-04-17T00:47:49.813Z,6.19
2023-04-17T00:50:16.591Z,6.18
2023-04-17T00:52:44.906Z,6.21
2023-04-17T00:55:12.453Z,6.19
2023-04-17T00:57:39.551Z,6.19
2023-04-17T01:00:07.583Z,6.20
2023-04-17T01:02:34.398Z,6.20
2023-04-17T01:05:02.505Z,6.21
2023-04-17T01:07:29.921Z,6.20
2023-04-17T01:09:56.772Z,6.20
2023-04-17T01:12:25.197Z,6.21
2023-04-17T01:14:52.085Z,6.22
2023-04-17T01:17:18.708Z,6.22
2023-04-17T01:19:45.486Z,6.23
2023-04-17T01:22:13.873Z,6.20
2023-04-17T01:24:41.909Z,6.19
2023-04-17T01:27:08.462Z,6.18
2023-04-17T01:29:35.376Z,6.20
2023-04-17T01:32:02.175Z,6.22
2023-04-17T01:34:28.774Z,6.21
2023-04-17T01:36:55.570Z,6.19
2023-04-17T01:39:22.257Z,6.17
2023-04-17T01:41:50.366Z,6.17
2023-04-17T01:44:17.462Z,6.13
2023-04-17T01:46:44.196Z,6.09
2023-04-17T01:49:11.479Z,6.07
2023-04-17T01:51:38.356Z,6.07
2023-04-17T01:54:05.530Z,6.04
2023-04-17T01:56:32.138Z,6.04
2023-04-17T01:59:00.016Z,6.08
2023-04-17T02:01:26.558Z,6.10
2023-04-17T02:03:53.490Z,6.11
2023-04-17T02:06:20.153Z,6.10
2023-04-17T02:08:46.739Z,6.16
2023-04-17T02:11:13.239Z,6.18
2023-04-17T02:13:39.919Z,6.17
2023-04-17T02:16:08.255Z,6.21
2023-04-17T02:18:34.814Z,6.22
2023-04-17T02:21:01.527Z,6.21
2023-04-17T02:23:28.124Z,6.24
2023-04-17T02:25:54.779Z,6.24
2023-04-17T02:28:21.398Z,6.25
2023-04-17T02:30:47.973Z,6.24
2023-04-17T02:33:15.818Z,6.26
2023-04-17T02:35:42.321Z,6.24
2023-04-17T02:38:08.818Z,6.26
2023-04-17T02:40:35.417Z,6.25
2023-04-17T02:43:01.947Z,6.26
2023-04-17T02:45:28.646Z,6.26
2023-04-17T02:47:55.349Z,6.24
2023-04-17T02:50:23.476Z,6.23
2023-04-17T02:52:49.981Z,6.22
2023-04-17T02:55:16.541Z,6.21
2023-04-17T02:57:43.329Z,6.22
2023-04-17T03:00:10.907Z,6.22
2023-04-17T03:02:37.636Z,6.21
2023-04-17T03:05:05.019Z,6.20
2023-04-17T03:07:33.370Z,6.20
2023-04-17T03:09:59.958Z,6.20
2023-04-17T03:12:26.635Z,6.24
2023-04-17T03:14:53.181Z,6.22
2023-04-17T03:17:19.890Z,6.22
2023-04-17T03:19:46.530Z,6.25
2023-04-17T03:22:13.446Z,6.25
2023-04-17T03:24:41.610Z,6.24
2023-04-17T03:27:08.283Z,6.25
2023-04-17T03:29:34.961Z,6.26
2023-04-17T03:32:01.682Z,6.23
2023-04-17T03:34:28.240Z,6.21
2023-04-17T03:36:55.021Z,6.21
2023-04-17T03:39:21.527Z,6.19
2023-04-17T03:41:49.471Z,6.20
2023-04-17T03:44:16.070Z,6.19
2023-04-17T03:46:42.641Z,6.16
2023-04-17T03:49:09.349Z,6.18
2023-04-17T03:51:36.032Z,6.17
2023-04-17T03:54:02.612Z,6.16
2023-04-17T03:56:29.179Z,6.17
2023-04-17T03:58:57.055Z,6.17
2023-04-17T04:01:23.623Z,6.15
2023-04-17T04:03:50.364Z,6.14
2023-04-17T04:06:16.995Z,6.15
2023-04-17T04:08:43.482Z,6.14
2023-04-17T04:11:09.966Z,6.14
2023-04-17T04:13:36.524Z,6.16
2023-04-17T04:16:04.686Z,6.16
2023-04-17T04:18:31.232Z,6.16
2023-04-17T04:20:58.026Z,6.15
2023-04-17T04:23:24.631Z,6.17
2023-04-17T04:25:51.251Z,6.15
2023-04-17T04:28:17.896Z,6.14
2023-04-17T04:30:44.990Z,6.16
2023-04-17T04:33:12.899Z,6.16
2023-04-17T04:35:39.409Z,6.16
2023-04-17T04:38:06.040Z,6.14
2023-04-17T04:40:33.250Z,6.13
2023-04-17T04:42:59.822Z,6.13
2023-04-17T04:45:26.356Z,6.13
2023-04-17T04:47:53.166Z,6.13
2023-04-17T04:50:21.138Z,6.16
2023-04-17T04:52:47.677Z,6.14
2023-04-17T04:55:14.266Z,6.17
2023-04-17T04:57:40.800Z,6.18
2023-04-17T05:00:08.850Z,6.18
2023-04-17T05:02:35.584Z,6.18
2023-04-17T05:05:02.487Z,6.20
2023-04-17T05:07:30.724Z,6.18
2023-04-17T05:09:57.263Z,6.17
2023-04-17T05:12:23.981Z,6.21
2023-04-17T05:14:50.569Z,6.20
2023-04-17T05:17:17.143Z,6.22
2023-04-17T05:19:43.862Z,6.26
2023-04-17T05:22:10.404Z,6.27
2023-04-17T05:24:38.329Z,6.32
2023-04-17T05:27:04.833Z,6.35
2023-04-17T05:29:31.340Z,6.38
2023-04-17T05:31:57.928Z,6.38
2023-04-17T05:34:24.690Z,6.38
2023-04-17T05:36:51.438Z,6.41
2023-04-17T05:39:18.027Z,6.48
2023-04-17T05:41:45.953Z,6.53
2023-04-17T05:44:12.543Z,6.55
2023-04-17T05:46:39.131Z,6.61
2023-04-17T05:49:05.687Z,6.57
2023-04-17T05:51:32.242Z,6.60
2023-04-17T05:53:58.821Z,6.72
2023-04-17T05:56:25.444Z,6.75
2023-04-17T05:58:53.294Z,6.86
2023-04-17T06:01:20.158Z,6.99
2023-04-17T06:03:46.873Z,7.03
2023-04-17T06:06:13.825Z,7.07
2023-04-17T06:08:40.434Z,7.18
2023-04-17T06:11:06.953Z,7.24
2023-04-17T06:13:33.563Z,7.30
2023-04-17T06:16:01.491Z,7.32
2023-04-17T06:18:28.070Z,7.27
2023-04-17T06:20:54.951Z,7.17
2023-04-17T06:23:21.531Z,7.15
2023-04-17T06:25:48.119Z,7.13
2023-04-17T06:28:14.620Z,7.06
2023-04-17T06:30:41.238Z,7.05
2023-04-17T06:33:09.217Z,7.02
2023-04-17T06:35:35.851Z,7.03
2023-04-17T06:38:02.402Z,7.07
2023-04-17T06:40:28.909Z,7.23
2023-04-17T06:42:55.601Z,7.35
2023-04-17T06:45:22.233Z,7.53
2023-04-17T06:47:48.799Z,7.59
2023-04-17T06:50:16.865Z,7.60
2023-04-17T06:52:43.482Z,7.61
2023-04-17T06:55:10.343Z,7.68
2023-04-17T06:57:36.947Z,7.71
2023-04-17T07:00:03.952Z,7.79
2023-04-17T07:02:30.703Z,7.90
2023-04-17T07:04:57.525Z,7.84
2023-04-17T07:07:25.690Z,7.82
2023-04-17T07:09:52.255Z,7.94
2023-04-17T07:12:18.830Z,8.23
2023-04-17T07:14:45.348Z,8.46
2023-04-17T07:17:12.035Z,8.70
2023-04-17T07:19:38.630Z,8.84
2023-04-17T07:22:05.175Z,9.00
2023-04-17T07:24:33.052Z,9.12
2023-04-17T07:26:59.584Z,9.24
2023-04-17T07:29:26.192Z,9.20
2023-04-17T07:31:52.979Z,9.26
2023-04-17T07:34:19.650Z,9.33
2023-04-17T07:36:46.133Z,9.28
2023-04-17T07:39:13.008Z,9.08
2023-04-17T07:41:41.052Z,8.92
2023-04-17T07:44:07.636Z,9.13
2023-04-17T07:46:34.300Z,9.09
2023-04-17T07:49:00.868Z,9.16
2023-04-17T07:51:27.520Z,8.88
2023-04-17T07:53:54.067Z,8.83
2023-04-17T07:56:20.644Z,8.70
2023-04-17T07:58:48.606Z,8.72
2023-04-17T08:01:15.206Z,8.91
2023-04-17T08:03:42.235Z,8.68
2023-04-17T08:06:08.969Z,8.98
2023-04-17T08:08:35.827Z,9.27
2023-04-17T08:11:02.383Z,9.51
2023-04-17T08:13:29.863Z,9.68
2023-04-17T08:15:58.034Z,9.85
2023-04-17T08:18:24.721Z,9.86
2023-04-17T08:20:52.836Z,9.99
2023-04-17T08:23:19.462Z,10.11
2023-04-17T08:25:46.259Z,10.13
2023-04-17T08:28:13.073Z,10.64
2023-04-17T08:30:39.679Z,10.78
2023-04-17T08:33:07.671Z,10.77
2023-04-17T08:35:34.384Z,11.04
2023-04-17T08:38:00.964Z,11.14
2023-04-17T08:40:27.521Z,10.66
2023-04-17T08:42:54.290Z,10.53
2023-04-17T08:45:23.008Z,10.29
2023-04-17T08:47:49.728Z,10.29
2023-04-17T08:50:19.732Z,10.28
2023-04-17T08:52:47.889Z,10.36
2023-04-17T08:55:15.766Z,10.37
2023-04-17T08:57:58.705Z,10.14
2023-04-17T09:00:27.347Z,9.97
2023-04-17T09:02:55.647Z,10.10
2023-04-17T09:05:26.802Z,10.27
2023-04-17T09:08:07.984Z,10.15
2023-04-17T09:10:35.707Z,10.45
2023-04-17T09:13:02.543Z,10.67
2023-04-17T09:15:29.155Z,10.96
2023-04-17T09:17:55.716Z,11.10
2023-04-17T09:20:23.701Z,11.96
2023-04-17T09:22:59.767Z,12.63
2023-04-17T09:25:26.500Z,12.86
2023-04-17T09:27:53.072Z,12.62
2023-04-17T09:30:19.723Z,12.38
2023-04-17T09:32:46.443Z,12.31
2023-04-17T09:35:24.905Z,12.41
2023-04-17T09:37:53.048Z,12.92
2023-04-17T09:40:21.835Z,13.72
2023-04-17T09:42:59.442Z,13.34
2023-04-17T09:45:27.610Z,12.45
2023-04-17T09:47:54.559Z,13.31
2023-04-17T09:50:22.052Z,14.20
2023-04-17T09:52:50.935Z,14.25
2023-04-17T09:55:19.269Z,14.20
2023-04-17T09:57:45.882Z,14.55
2023-04-17T10:00:13.844Z,14.21
2023-04-17T10:02:42.234Z,14.14
2023-04-17T10:05:10.751Z,14.65
2023-04-17T10:07:38.028Z,15.36
2023-04-17T10:10:07.083Z,16.04
2023-04-17T10:12:34.906Z,16.30
2023-04-17T10:15:02.793Z,16.43
2023-04-17T10:17:30.421Z,16.62
2023-04-17T10:19:59.793Z,16.39
2023-04-17T10:22:30.008Z,15.83
2023-04-17T10:25:20.545Z,15.25
2023-04-17T10:27:56.000Z,14.83
2023-04-17T10:30:23.487Z,14.78
2023-04-17T10:33:22.088Z,14.44
2023-04-17T10:35:49.226Z,14.83
2023-04-17T10:38:15.772Z,15.39
2023-04-17T10:40:44.555Z,15.61
2023-04-17T10:43:13.055Z,15.03
2023-04-17T10:45:57.369Z,14.86
2023-04-17T10:48:28.259Z,15.06
2023-04-17T10:50:55.048Z,14.86
2023-04-17T10:53:38.314Z,15.24
2023-04-17T10:56:07.006Z,14.91
2023-04-17T10:58:37.689Z,15.67
2023-04-17T11:01:09.581Z,16.28
2023-04-17T11:03:36.606Z,17.13
2023-04-17T11:06:03.974Z,17.13
2023-04-17T11:08:30.562Z,18.05
2023-04-17T11:10:57.087Z,17.69
2023-04-17T11:13:25.033Z,16.54
2023-04-17T11:15:51.624Z,16.53
2023-04-17T11:18:20.693Z,16.80
2023-04-17T11:20:47.639Z,17.90
2023-04-17T11:23:16.101Z,17.52
2023-04-17T11:25:43.389Z,17.03
2023-04-17T11:28:11.598Z,16.60
2023-04-17T11:30:40.004Z,17.36
2023-04-17T11:33:08.164Z,17.86
2023-04-17T11:35:36.297Z,17.69
2023-04-17T11:38:07.257Z,17.58
2023-04-17T11:40:34.017Z,18.36
2023-04-17T11:43:05.878Z,17.29
2023-04-17T11:45:33.442Z,16.68
2023-04-17T11:48:01.470Z,16.05
2023-04-17T11:50:28.951Z,16.08
2023-04-17T11:52:57.362Z,15.94
2023-04-17T11:55:23.968Z,16.10
2023-04-17T11:57:51.762Z,15.76
2023-04-17T12:00:19.404Z,15.56
2023-04-17T12:02:46.151Z,15.35
2023-04-17T12:05:14.694Z,15.15
2023-04-17T12:07:41.440Z,15.01
2023-04-17T12:10:09.241Z,16.27
2023-04-17T12:12:35.808Z,17.34
2023-04-17T12:15:02.479Z,18.40
2023-04-17T12:17:29.167Z,18.29
2023-04-17T12:19:55.686Z,17.50
2023-04-17T12:22:23.802Z,16.39
2023-04-17T12:24:50.402Z,16.77
2023-04-17T12:27:17.048Z,17.13
2023-04-17T12:29:44.814Z,17.07
2023-04-17T12:32:11.842Z,17.59
2023-04-17T12:34:38.519Z,18.64
2023-04-17T12:37:05.144Z,17.93
2023-04-17T12:39:33.088Z,18.57
2023-04-17T12:41:59.823Z,19.18
2023-04-17T12:44:26.439Z,19.14
2023-04-17T12:46:53.067Z,18.02
2023-04-17T12:49:19.681Z,17.41
2023-04-17T12:51:46.229Z,16.66
2023-04-17T12:54:13.049Z,16.08
2023-04-17T12:56:41.307Z,15.53
2023-04-17T12:59:07.897Z,15.11
2023-04-17T13:01:34.423Z,15.00
2023-04-17T13:04:01.231Z,14.81
2023-04-17T13:06:27.942Z,14.80
2023-04-17T13:08:54.519Z,14.74
2023-04-17T13:11:21.057Z,14.62
2023-04-17T13:13:48.908Z,14.40
2023-04-17T13:16:15.572Z,14.19
2023-04-17T13:18:42.158Z,13.97
2023-04-17T13:21:08.692Z,14.12
2023-04-17T13:23:35.373Z,14.15
2023-04-17T13:26:01.917Z,14.03
2023-04-17T13:28:28.473Z,13.94
2023-04-17T13:30:56.530Z,14.02
2023-04-17T13:33:23.287Z,13.95
2023-04-17T13:35:49.973Z,13.97
2023-04-17T13:38:16.542Z,13.66
2023-04-17T13:40:43.216Z,13.32
2023-04-17T13:43:09.883Z,13.16
2023-04-17T13:45:36.449Z,13.01
2023-04-17T13:48:04.431Z,12.81
2023-04-17T13:50:31.013Z,13.56
2023-04-17T13:52:57.548Z,15.46
2023-04-17T13:55:24.124Z,17.12
2023-04-17T13:57:50.663Z,17.03
2023-04-17T14:00:17.779Z,15.76
2023-04-17T14:02:44.520Z,15.20
2023-04-17T14:05:12.700Z,14.53
2023-04-17T14:07:39.413Z,13.92
2023-04-17T14:10:07.498Z,13.82
2023-04-17T14:12:34.096Z,13.75
2023-04-17T14:15:00.695Z,13.81
2023-04-17T14:17:27.334Z,14.28
2023-04-17T14:19:53.903Z,14.76
2023-04-17T14:22:21.774Z,14.96
2023-04-17T14:24:48.272Z,14.79
2023-04-17T14:27:14.802Z,14.76
2023-04-17T14:29:41.379Z,14.61
2023-04-17T14:32:08.056Z,14.42
2023-04-17T14:34:34.660Z,14.30
2023-04-17T14:37:01.300Z,14.14
2023-04-17T14:39:31.352Z,14.02
2023-04-17T14:41:59.761Z,14.06
2023-04-17T14:44:28.425Z,14.07
2023-04-17T14:46:55.253Z,14.37
2023-04-17T14:49:22.033Z,15.44
2023-04-17T14:51:49.086Z,16.36
2023-04-17T14:54:15.799Z,15.95
2023-04-17T14:56:43.730Z,15.34
2023-04-17T14:59:10.284Z,15.20
2023-04-17T15:01:36.932Z,14.73
2023-04-17T15:04:03.832Z,14.98
2023-04-17T15:06:30.590Z,15.67
2023-04-17T15:08:57.294Z,16.06
2023-04-17T15:11:23.813Z,15.94
2023-04-17T15:13:51.908Z,15.73
2023-04-17T15:16:18.506Z,15.26
2023-04-17T15:18:45.158Z,15.89
2023-04-17T15:21:11.829Z,16.87
2023-04-17T15:23:38.414Z,17.35
2023-04-17T15:26:05.322Z,16.93
2023-04-17T15:28:31.896Z,16.52
2023-04-17T15:30:59.802Z,16.50
2023-04-17T15:33:26.519Z,16.37
2023-04-17T15:35:54.863Z,16.54
2023-04-17T15:38:21.437Z,16.67
2023-04-17T15:40:47.933Z,16.57
2023-04-17T15:43:14.533Z,16.89
2023-04-17T15:45:41.150Z,16.69
2023-04-17T15:48:09.225Z,16.60
2023-04-17T15:50:35.982Z,16.87
2023-04-17T15:53:02.586Z,17.25
2023-04-17T15:55:29.254Z,17.59
2023-04-17T15:57:56.129Z,17.21
2023-04-17T16:00:22.739Z,17.69
2023-04-17T16:02:49.437Z,17.27
2023-04-17T16:05:18.184Z,16.95
2023-04-17T16:07:45.148Z,16.28
2023-04-17T16:10:12.206Z,15.41
2023-04-17T16:12:40.389Z,15.09
2023-04-17T16:15:08.787Z,14.73
2023-04-17T16:17:35.503Z,14.96
2023-04-17T16:20:03.552Z,14.95
2023-04-17T16:22:31.729Z,15.31
2023-04-17T16:24:58.430Z,15.80
2023-04-17T16:27:26.130Z,15.97
2023-04-17T16:29:52.846Z,15.90
2023-04-17T16:32:19.468Z,15.29
2023-04-17T16:34:46.077Z,14.89
2023-04-17T16:37:12.756Z,14.45
2023-04-17T16:39:40.748Z,14.21
2023-04-17T16:42:07.559Z,14.14
2023-04-17T16:44:34.238Z,13.84
2023-04-17T16:47:12.810Z,14.19
2023-04-17T16:49:40.312Z,14.47
2023-04-17T16:52:07.081Z,14.57
2023-04-17T16:54:33.642Z,14.57
2023-04-17T16:57:01.534Z,14.70
2023-04-17T16:59:28.064Z,14.94
2023-04-17T17:01:54.809Z,14.98
2023-04-17T17:04:21.470Z,15.33
2023-04-17T17:06:48.096Z,15.73
2023-04-17T17:09:14.858Z,16.07
2023-04-17T17:11:41.542Z,16.28
2023-04-17T17:14:09.448Z,16.35
2023-04-17T17:16:36.066Z,16.23
2023-04-17T17:19:02.704Z,15.58
2023-04-17T17:21:29.451Z,14.70
2023-04-17T17:23:56.490Z,14.06
2023-04-17T17:26:23.192Z,13.42
2023-04-17T17:28:49.876Z,13.05
2023-04-17T17:31:17.892Z,12.76
2023-04-17T17:33:44.702Z,12.44
2023-04-17T17:36:11.288Z,12.21
2023-04-17T17:38:37.879Z,11.97
2023-04-17T17:41:04.495Z,11.82
2023-04-17T17:43:31.019Z,11.61
2023-04-17T17:45:57.653Z,11.36
2023-04-17T17:48:25.625Z,11.14
2023-04-17T17:50:53.872Z,10.98
2023-04-17T17:53:25.573Z,10.83
2023-04-17T17:55:53.356Z,10.61
2023-04-17T17:58:20.718Z,10.50
2023-04-17T18:00:47.521Z,10.33
2023-04-17T18:03:14.359Z,10.20
2023-04-17T18:05:43.252Z,10.09
2023-04-17T18:08:10.030Z,9.98
2023-04-17T18:10:36.704Z,9.82
2023-04-17T18:13:03.245Z,9.64
2023-04-17T18:15:29.840Z,9.49
2023-04-17T18:17:56.629Z,9.41
2023-04-17T18:20:23.479Z,9.21
2023-04-17T18:22:51.376Z,9.12
2023-04-17T18:25:18.146Z,9.04
2023-04-17T18:27:44.687Z,8.93
2023-04-17T18:30:12.253Z,8.80
2023-04-17T18:32:40.988Z,8.73
2023-04-17T18:35:08.405Z,8.68
2023-04-17T18:37:35.120Z,8.68
2023-04-17T18:40:05.045Z,8.58
2023-04-17T18:42:31.722Z,8.52
2023-04-17T18:44:58.338Z,8.48
2023-04-17T18:47:28.238Z,8.41
2023-04-17T18:49:54.850Z,8.36
2023-04-17T18:52:21.526Z,8.25
2023-04-17T18:54:48.151Z,8.12
2023-04-17T18:57:16.119Z,8.04
2023-04-17T18:59:43.355Z,7.92
2023-04-17T19:02:10.150Z,7.90
2023-04-17T19:04:36.916Z,7.87
2023-04-17T19:07:03.511Z,7.82
2023-04-17T19:09:30.135Z,7.74
2023-04-17T19:11:56.760Z,7.65
2023-04-17T19:14:24.684Z,7.56
2023-04-17T19:16:51.331Z,7.52
2023-04-17T19:19:17.930Z,7.41
2023-04-17T19:21:44.799Z,7.30
2023-04-17T19:24:13.258Z,7.21
2023-04-17T19:26:39.990Z,7.15
2023-04-17T19:29:06.866Z,7.10
2023-04-17T19:31:35.019Z,7.06
2023-04-17T19:34:01.611Z,6.97
2023-04-17T19:36:28.195Z,6.92
2023-04-17T19:38:55.231Z,6.88
2023-04-17T19:41:21.784Z,6.85
2023-04-17T19:43:50.266Z,6.82
2023-04-17T19:46:17.933Z,6.74
2023-04-17T19:48:46.575Z,6.61
2023-04-17T19:51:14.391Z,6.32
2023-04-17T19:53:42.662Z,6.07
2023-04-17T19:56:10.613Z,5.89
2023-04-17T19:58:37.903Z,5.69
2023-04-17T20:01:05.280Z,5.55
2023-04-17T20:03:32.706Z,5.41
2023-04-17T20:06:00.896Z,5.33
2023-04-17T20:08:29.932Z,5.23
2023-04-17T20:10:56.491Z,5.09
2023-04-17T20:13:23.176Z,5.00
2023-04-17T20:15:56.028Z,4.91
2023-04-17T20:18:22.617Z,4.88
2023-04-17T20:20:49.140Z,4.79
2023-04-17T20:23:17.048Z,4.71
2023-04-17T20:25:43.760Z,4.66
2023-04-17T20:28:10.342Z,4.59
2023-04-17T20:30:37.059Z,4.51
2023-04-17T20:33:03.871Z,4.48
2023-04-17T20:35:30.768Z,4.40
2023-04-17T20:37:57.417Z,4.37
2023-04-17T20:40:25.557Z,4.31
2023-04-17T20:42:52.299Z,4.24
2023-04-17T20:45:18.855Z,4.18
2023-04-17T20:47:56.476Z,4.13
2023-04-17T20:50:24.325Z,4.00
2023-04-17T20:52:51.049Z,3.93
2023-04-17T20:55:17.669Z,3.87
2023-04-17T20:57:45.886Z,3.85
2023-04-17T21:00:13.483Z,3.84
2023-04-17T21:02:40.233Z,3.75
2023-04-17T21:05:07.786Z,3.74
2023-04-17T21:07:34.991Z,3.69
2023-04-17T21:10:01.856Z,3.68
2023-04-17T21:12:28.442Z,3.68
2023-04-17T21:14:56.301Z,3.65
2023-04-17T21:17:23.307Z,3.59
2023-04-17T21:19:50.138Z,3.60
2023-04-17T21:22:16.802Z,3.59
2023-04-17T21:24:43.443Z,3.56
2023-04-17T21:27:10.409Z,3.58
2023-04-17T21:29:37.163Z,3.55
2023-04-17T21:32:05.555Z,3.49
2023-04-17T21:34:32.161Z,3.47
2023-04-17T21:36:59.857Z,3.45
2023-04-17T21:39:26.350Z,3.43
2023-04-17T21:41:52.940Z,3.45
2023-04-17T21:44:19.568Z,3.45
2023-04-17T21:46:46.378Z,3.45
2023-04-17T21:49:14.381Z,3.44
2023-04-17T21:51:40.968Z,3.47
2023-04-17T21:54:09.158Z,3.46
2023-04-17T21:56:35.709Z,3.44
2023-04-17T21:59:02.376Z,3.41
2023-04-17T22:01:28.982Z,3.39
2023-04-17T22:03:55.600Z,3.36
2023-04-17T22:06:23.544Z,3.30
2023-04-17T22:08:50.053Z,3.26
2023-04-17T22:11:16.670Z,3.21
2023-04-17T22:13:43.323Z,3.18
2023-04-17T22:16:10.064Z,3.15
2023-04-17T22:18:36.600Z,3.12
2023-04-17T22:21:03.730Z,3.18
2023-04-17T22:23:31.628Z,3.22
2023-04-17T22:25:58.169Z,3.28
2023-04-17T22:28:24.936Z,3.30
2023-04-17T22:30:51.599Z,3.34
2023-04-17T22:33:18.321Z,3.44
2023-04-17T22:35:44.882Z,3.57
2023-04-17T22:38:11.619Z,3.67
2023-04-17T22:40:39.511Z,3.86
2023-04-17T22:43:06.371Z,3.98
2023-04-17T22:45:32.863Z,4.09
2023-04-17T22:47:59.806Z,4.09
2023-04-17T22:50:26.548Z,4.08
2023-04-17T22:52:53.377Z,4.10
2023-04-17T22:55:20.174Z,4.03
2023-04-17T22:57:48.099Z,3.91
2023-04-17T23:00:15.598Z,3.75
2023-04-17T23:02:42.407Z,3.61
2023-04-17T23:05:09.391Z,3.53
2023-04-17T23:07:35.985Z,3.56
2023-04-17T23:10:02.537Z,3.62
2023-04-17T23:12:29.188Z,3.70
2023-04-17T23:14:57.613Z,3.78
2023-04-17T23:17:24.423Z,3.81
2023-04-17T23:19:51.033Z,3.84
2023-04-17T23:22:17.645Z,3.88
2023-04-17T23:24:44.197Z,3.87
2023-04-17T23:27:10.805Z,3.87
2023-04-17T23:29:37.338Z,3.87
2023-04-17T23:32:06.543Z,3.83
2023-04-17T23:34:33.268Z,3.80
2023-04-17T23:36:59.820Z,3.83
2023-04-17T23:39:26.386Z,3.78
2023-04-17T23:41:53.001Z,3.69
2023-04-17T23:44:19.565Z,3.49
2023-04-17T23:46:46.146Z,3.37
2023-04-17T23:49:14.050Z,3.16
2023-04-17T23:51:40.766Z,3.00
2023-04-17T23:54:07.353Z,2.92
2023-04-17T23:56:33.913Z,2.84
2023-04-17T23:59:00.493Z,2.80
